6.6°F
Current conditions from King Hill
Updated every 5 minutes
 
  Saturday December 20, 2014

Station Historical Data
Daily Summary for January 5, 2012 Units:  Both    English   Metric
« Previous Day
Next Day »
Daily Weekly Monthly Yearly Custom
  High: Low: Average:
Temperature: 24.5 °F /  -4.2 °C 14.6 °F /  -9.7 °C 20 °F /  -6.7 °C
Dew Point: 18.7 °F /  -7.4 °C 7.8 °F /  -13.4 °C 12.6 °F /  -10.8 °C
Humidity: 89% 57% 73%
Wind Speed: 11.0mph /  17.7km/h - 5.6mph /  9km/h
Wind Gust: 24.0mph /  38.6km/h - -
Wind- - WSW
Pressure: 29.88 in /  1011.7 hPa 29.74 in /  1007 hPa -
Precipitation: 0.00 in /  0 mm    
Historical Graphs
 
 
Tabular Data for January 5, 2012
Time Temperature Dew Point Pressure Wind Wind Speed Wind Gust Humidity Daily Rainfall
00:04 18.2 °F /  -7.7 °C 9.1 °F /  -12.7 °C 29.80in /  1009hPa SSW 7.0mph /  11.3km/h 14.0mph /  22.5km/h 67% 0.00in /  0mm
00:09 18.2 °F /  -7.7 °C 9.1 °F /  -12.7 °C 29.80in /  1009hPa SSW 10.0mph /  16.1km/h 18.0mph /  29km/h 67% 0.00in /  0mm
00:14 18.2 °F /  -7.7 °C 9.4 °F /  -12.6 °C 29.79in /  1008.7hPa SSW 9.0mph /  14.5km/h 18.0mph /  29km/h 68% 0.00in /  0mm
00:19 18.3 °F /  -7.6 °C 9.5 °F /  -12.5 °C 29.79in /  1008.7hPa SSW 6.0mph /  9.7km/h 18.0mph /  29km/h 68% 0.00in /  0mm
00:24 18.3 °F /  -7.6 °C 9.5 °F /  -12.5 °C 29.79in /  1008.7hPa SSW 7.0mph /  11.3km/h 18.0mph /  29km/h 68% 0.00in /  0mm
00:29 18.3 °F /  -7.6 °C 9.5 °F /  -12.5 °C 29.79in /  1008.7hPa SSW 9.0mph /  14.5km/h 18.0mph /  29km/h 68% 0.00in /  0mm
00:34 18.4 °F /  -7.6 °C 9.6 °F /  -12.4 °C 29.78in /  1008.4hPa SSW 9.0mph /  14.5km/h 17.0mph /  27.4km/h 68% 0.00in /  0mm
00:39 18.4 °F /  -7.6 °C 9.6 °F /  -12.4 °C 29.79in /  1008.7hPa SSW 7.0mph /  11.3km/h 17.0mph /  27.4km/h 68% 0.00in /  0mm
00:45 18.5 °F /  -7.5 °C 9.7 °F /  -12.4 °C 29.79in /  1008.7hPa SSW 8.0mph /  12.9km/h 15.0mph /  24.1km/h 68% 0.00in /  0mm
00:49 18.6 °F /  -7.4 °C 9.8 °F /  -12.3 °C 29.79in /  1008.7hPa SSW 8.0mph /  12.9km/h 16.0mph /  25.7km/h 68% 0.00in /  0mm
00:54 18.7 °F /  -7.4 °C 9.9 °F /  -12.3 °C 29.79in /  1008.7hPa SSW 6.0mph /  9.7km/h 16.0mph /  25.7km/h 68% 0.00in /  0mm
00:59 18.7 °F /  -7.4 °C 9.9 °F /  -12.3 °C 29.78in /  1008.4hPa SSW 9.0mph /  14.5km/h 16.0mph /  25.7km/h 68% 0.00in /  0mm
01:04 18.8 °F /  -7.3 °C 10.0 °F /  -12.2 °C 29.79in /  1008.7hPa SSW 6.0mph /  9.7km/h 16.0mph /  25.7km/h 68% 0.00in /  0mm
01:09 18.8 °F /  -7.3 °C 10.0 °F /  -12.2 °C 29.79in /  1008.7hPa SSW 7.0mph /  11.3km/h 17.0mph /  27.4km/h 68% 0.00in /  0mm
01:14 18.9 °F /  -7.3 °C 10.1 °F /  -12.2 °C 29.79in /  1008.7hPa SSW 8.0mph /  12.9km/h 17.0mph /  27.4km/h 68% 0.00in /  0mm
01:19 19.0 °F /  -7.2 °C 10.2 °F /  -12.1 °C 29.79in /  1008.7hPa SSW 6.0mph /  9.7km/h 16.0mph /  25.7km/h 68% 0.00in /  0mm
01:24 19.0 °F /  -7.2 °C 10.2 °F /  -12.1 °C 29.79in /  1008.7hPa SW 5.0mph /  8km/h 16.0mph /  25.7km/h 68% 0.00in /  0mm
01:29 19.1 °F /  -7.2 °C 10.6 °F /  -11.9 °C 29.79in /  1008.7hPa SSW 7.0mph /  11.3km/h 17.0mph /  27.4km/h 69% 0.00in /  0mm
01:34 19.1 °F /  -7.2 °C 10.3 °F /  -12.1 °C 29.78in /  1008.4hPa SSW 10.0mph /  16.1km/h 21.0mph /  33.8km/h 68% 0.00in /  0mm
01:39 19.2 °F /  -7.1 °C 10.4 °F /  -12 °C 29.79in /  1008.7hPa SW 9.0mph /  14.5km/h 21.0mph /  33.8km/h 68% 0.00in /  0mm
01:44 19.3 °F /  -7.1 °C 10.5 °F /  -11.9 °C 29.79in /  1008.7hPa SSW 6.0mph /  9.7km/h 18.0mph /  29km/h 68% 0.00in /  0mm
01:49 19.3 °F /  -7.1 °C 10.5 °F /  -11.9 °C 29.79in /  1008.7hPa SSW 10.0mph /  16.1km/h 24.0mph /  38.6km/h 68% 0.00in /  0mm
01:54 19.3 °F /  -7.1 °C 10.5 °F /  -11.9 °C 29.79in /  1008.7hPa SSW 8.0mph /  12.9km/h 24.0mph /  38.6km/h 68% 0.00in /  0mm
01:59 19.3 °F /  -7.1 °C 10.5 °F /  -11.9 °C 29.79in /  1008.7hPa SSW 8.0mph /  12.9km/h 18.0mph /  29km/h 68% 0.00in /  0mm
02:04 19.3 °F /  -7.1 °C 10.8 °F /  -11.8 °C 29.79in /  1008.7hPa SSW 7.0mph /  11.3km/h 22.0mph /  35.4km/h 69% 0.00in /  0mm
02:09 19.3 °F /  -7.1 °C 10.8 °F /  -11.8 °C 29.79in /  1008.7hPa SW 7.0mph /  11.3km/h 22.0mph /  35.4km/h 69% 0.00in /  0mm
02:14 19.3 °F /  -7.1 °C 10.8 °F /  -11.8 °C 29.79in /  1008.7hPa SSW 11.0mph /  17.7km/h 18.0mph /  29km/h 69% 0.00in /  0mm
02:19 19.2 °F /  -7.1 °C 11.0 °F /  -11.7 °C 29.79in /  1008.7hPa SSW 10.0mph /  16.1km/h 18.0mph /  29km/h 70% 0.00in /  0mm
02:24 19.2 °F /  -7.1 °C 11.0 °F /  -11.7 °C 29.79in /  1008.7hPa SW 9.0mph /  14.5km/h 17.0mph /  27.4km/h 70% 0.00in /  0mm
02:30 19.2 °F /  -7.1 °C 11.3 °F /  -11.5 °C 29.79in /  1008.7hPa SW 10.0mph /  16.1km/h 17.0mph /  27.4km/h 71% 0.00in /  0mm
02:39 19.1 °F /  -7.2 °C 11.6 °F /  -11.3 °C 29.78in /  1008.4hPa SSW 8.0mph /  12.9km/h 18.0mph /  29km/h 72% 0.00in /  0mm
02:44 19.0 °F /  -7.2 °C 11.8 °F /  -11.2 °C 29.78in /  1008.4hPa SSW 8.0mph /  12.9km/h 18.0mph /  29km/h 73% 0.00in /  0mm
02:49 18.9 °F /  -7.3 °C 11.7 °F /  -11.3 °C 29.78in /  1008.4hPa SSW 7.0mph /  11.3km/h 16.0mph /  25.7km/h 73% 0.00in /  0mm
02:54 18.9 °F /  -7.3 °C 12.0 °F /  -11.1 °C 29.77in /  1008hPa SSW 9.0mph /  14.5km/h 16.0mph /  25.7km/h 74% 0.00in /  0mm
02:59 18.9 °F /  -7.3 °C 12.3 °F /  -10.9 °C 29.78in /  1008.4hPa SSW 7.0mph /  11.3km/h 16.0mph /  25.7km/h 75% 0.00in /  0mm
03:04 18.8 °F /  -7.3 °C 12.5 °F /  -10.8 °C 29.77in /  1008hPa SSW 7.0mph /  11.3km/h 16.0mph /  25.7km/h 76% 0.00in /  0mm
03:09 18.8 °F /  -7.3 °C 12.5 °F /  -10.8 °C 29.77in /  1008hPa SSW 9.0mph /  14.5km/h 17.0mph /  27.4km/h 76% 0.00in /  0mm
03:14 18.8 °F /  -7.3 °C 12.8 °F /  -10.7 °C 29.77in /  1008hPa SSW 8.0mph /  12.9km/h 17.0mph /  27.4km/h 77% 0.00in /  0mm
03:19 18.8 °F /  -7.3 °C 12.8 °F /  -10.7 °C 29.77in /  1008hPa SSW 9.0mph /  14.5km/h 17.0mph /  27.4km/h 77% 0.00in /  0mm
03:24 18.8 °F /  -7.3 °C 12.8 °F /  -10.7 °C 29.77in /  1008hPa SSW 10.0mph /  16.1km/h 17.0mph /  27.4km/h 77% 0.00in /  0mm
03:29 18.9 °F /  -7.3 °C 13.2 °F /  -10.4 °C 29.77in /  1008hPa SSW 7.0mph /  11.3km/h 17.0mph /  27.4km/h 78% 0.00in /  0mm
03:34 18.9 °F /  -7.3 °C 13.2 °F /  -10.4 °C 29.77in /  1008hPa SSW 6.0mph /  9.7km/h 16.0mph /  25.7km/h 78% 0.00in /  0mm
03:39 18.9 °F /  -7.3 °C 13.2 °F /  -10.4 °C 29.77in /  1008hPa SW 6.0mph /  9.7km/h 16.0mph /  25.7km/h 78% 0.00in /  0mm
03:44 18.9 °F /  -7.3 °C 13.2 °F /  -10.4 °C 29.77in /  1008hPa SSW 7.0mph /  11.3km/h 13.0mph /  20.9km/h 78% 0.00in /  0mm
03:49 18.9 °F /  -7.3 °C 13.5 °F /  -10.3 °C 29.77in /  1008hPa SW 7.0mph /  11.3km/h 12.0mph /  19.3km/h 79% 0.00in /  0mm
03:54 18.9 °F /  -7.3 °C 13.5 °F /  -10.3 °C 29.77in /  1008hPa SSW 7.0mph /  11.3km/h 14.0mph /  22.5km/h 79% 0.00in /  0mm
03:59 18.9 °F /  -7.3 °C 13.5 °F /  -10.3 °C 29.77in /  1008hPa SSW 6.0mph /  9.7km/h 14.0mph /  22.5km/h 79% 0.00in /  0mm
04:04 18.9 °F /  -7.3 °C 13.5 °F /  -10.3 °C 29.77in /  1008hPa SW 6.0mph /  9.7km/h 14.0mph /  22.5km/h 79% 0.00in /  0mm
04:09 18.9 °F /  -7.3 °C 13.5 °F /  -10.3 °C 29.77in /  1008hPa SW 8.0mph /  12.9km/h 15.0mph /  24.1km/h 79% 0.00in /  0mm
04:14 18.9 °F /  -7.3 °C 13.8 °F /  -10.1 °C 29.76in /  1007.7hPa SW 6.0mph /  9.7km/h 15.0mph /  24.1km/h 80% 0.00in /  0mm
04:19 18.8 °F /  -7.3 °C 13.7 °F /  -10.2 °C 29.76in /  1007.7hPa SW 7.0mph /  11.3km/h 12.0mph /  19.3km/h 80% 0.00in /  0mm
04:24 18.8 °F /  -7.3 °C 13.9 °F /  -10.1 °C 29.76in /  1007.7hPa SSW 6.0mph /  9.7km/h 13.0mph /  20.9km/h 81% 0.00in /  0mm
04:29 18.8 °F /  -7.3 °C 13.9 °F /  -10.1 °C 29.75in /  1007.3hPa SSW 7.0mph /  11.3km/h 13.0mph /  20.9km/h 81% 0.00in /  0mm
04:34 18.8 °F /  -7.3 °C 13.9 °F /  -10.1 °C 29.76in /  1007.7hPa SSW 9.0mph /  14.5km/h 14.0mph /  22.5km/h 81% 0.00in /  0mm
04:39 18.8 °F /  -7.3 °C 13.9 °F /  -10.1 °C 29.75in /  1007.3hPa SSW 6.0mph /  9.7km/h 14.0mph /  22.5km/h 81% 0.00in /  0mm
04:44 18.9 °F /  -7.3 °C 14.0 °F /  -10 °C 29.76in /  1007.7hPa SW 6.0mph /  9.7km/h 14.0mph /  22.5km/h 81% 0.00in /  0mm
04:49 18.9 °F /  -7.3 °C 14.0 °F /  -10 °C 29.75in /  1007.3hPa SW 8.0mph /  12.9km/h 14.0mph /  22.5km/h 81% 0.00in /  0mm
04:54 18.9 °F /  -7.3 °C 14.0 °F /  -10 °C 29.75in /  1007.3hPa SW 6.0mph /  9.7km/h 13.0mph /  20.9km/h 81% 0.00in /  0mm
04:59 19.0 °F /  -7.2 °C 14.1 °F /  -9.9 °C 29.75in /  1007.3hPa SSW 7.0mph /  11.3km/h 15.0mph /  24.1km/h 81% 0.00in /  0mm
05:04 19.1 °F /  -7.2 °C 14.2 °F /  -9.9 °C 29.74in /  1007hPa SW 7.0mph /  11.3km/h 15.0mph /  24.1km/h 81% 0.00in /  0mm
05:09 19.1 °F /  -7.2 °C 14.2 °F /  -9.9 °C 29.75in /  1007.3hPa SSW 5.0mph /  8km/h 16.0mph /  25.7km/h 81% 0.00in /  0mm
05:14 19.1 °F /  -7.2 °C 14.2 °F /  -9.9 °C 29.75in /  1007.3hPa SSW 7.0mph /  11.3km/h 16.0mph /  25.7km/h 81% 0.00in /  0mm
05:19 19.2 °F /  -7.1 °C 14.3 °F /  -9.8 °C 29.75in /  1007.3hPa SSW 7.0mph /  11.3km/h 15.0mph /  24.1km/h 81% 0.00in /  0mm
05:24 19.2 °F /  -7.1 °C 14.3 °F /  -9.8 °C 29.75in /  1007.3hPa SSW 4.0mph /  6.4km/h 17.0mph /  27.4km/h 81% 0.00in /  0mm
05:29 19.3 °F /  -7.1 °C 14.4 °F /  -9.8 °C 29.75in /  1007.3hPa SSW 7.0mph /  11.3km/h 17.0mph /  27.4km/h 81% 0.00in /  0mm
05:34 19.4 °F /  -7 °C 14.5 °F /  -9.7 °C 29.75in /  1007.3hPa SSW 6.0mph /  9.7km/h 15.0mph /  24.1km/h 81% 0.00in /  0mm
05:39 19.4 °F /  -7 °C 16.7 °F /  -8.5 °C 29.75in /  1007.3hPa SW 9.0mph /  14.5km/h 14.0mph /  22.5km/h 89% 0.00in /  0mm
05:44 19.5 °F /  -6.9 °C 14.6 °F /  -9.7 °C 29.74in /  1007hPa SSW 7.0mph /  11.3km/h 14.0mph /  22.5km/h 81% 0.00in /  0mm
05:49 19.5 °F /  -6.9 °C 14.6 °F /  -9.7 °C 29.75in /  1007.3hPa SSW 6.0mph /  9.7km/h 13.0mph /  20.9km/h 81% 0.00in /  0mm
05:54 19.6 °F /  -6.9 °C 14.7 °F /  -9.6 °C 29.74in /  1007hPa SW 6.0mph /  9.7km/h 16.0mph /  25.7km/h 81% 0.00in /  0mm
05:59 19.7 °F /  -6.8 °C 14.5 °F /  -9.7 °C 29.75in /  1007.3hPa SSW 6.0mph /  9.7km/h 16.0mph /  25.7km/h 80% 0.00in /  0mm
06:04 19.7 °F /  -6.8 °C 14.5 °F /  -9.7 °C 29.74in /  1007hPa SSW 6.0mph /  9.7km/h 14.0mph /  22.5km/h 80% 0.00in /  0mm
06:09 19.7 °F /  -6.8 °C 14.5 °F /  -9.7 °C 29.74in /  1007hPa SSW 7.0mph /  11.3km/h 18.0mph /  29km/h 80% 0.00in /  0mm
06:14 19.7 °F /  -6.8 °C 14.8 °F /  -9.6 °C 29.74in /  1007hPa SW 7.0mph /  11.3km/h 18.0mph /  29km/h 81% 0.00in /  0mm
06:19 19.7 °F /  -6.8 °C 14.8 °F /  -9.6 °C 29.74in /  1007hPa SW 4.0mph /  6.4km/h 11.0mph /  17.7km/h 81% 0.00in /  0mm
06:24 19.7 °F /  -6.8 °C 14.8 °F /  -9.6 °C 29.74in /  1007hPa SW 8.0mph /  12.9km/h 12.0mph /  19.3km/h 81% 0.00in /  0mm
06:29 19.8 °F /  -6.8 °C 14.6 °F /  -9.7 °C 29.74in /  1007hPa SSW 4.0mph /  6.4km/h 12.0mph /  19.3km/h 80% 0.00in /  0mm
06:34 19.8 °F /  -6.8 °C 14.9 °F /  -9.5 °C 29.75in /  1007.3hPa SSW 7.0mph /  11.3km/h 12.0mph /  19.3km/h 81% 0.00in /  0mm
06:39 19.9 °F /  -6.7 °C 15.0 °F /  -9.4 °C 29.74in /  1007hPa SSW 5.0mph /  8km/h 14.0mph /  22.5km/h 81% 0.00in /  0mm
06:44 19.9 °F /  -6.7 °C 15.0 °F /  -9.4 °C 29.74in /  1007hPa SSW 6.0mph /  9.7km/h 14.0mph /  22.5km/h 81% 0.00in /  0mm
06:49 19.9 °F /  -6.7 °C 15.0 °F /  -9.4 °C 29.74in /  1007hPa SW 7.0mph /  11.3km/h 15.0mph /  24.1km/h 81% 0.00in /  0mm
06:54 20.0 °F /  -6.7 °C 15.1 °F /  -9.4 °C 29.75in /  1007.3hPa SSW 6.0mph /  9.7km/h 15.0mph /  24.1km/h 81% 0.00in /  0mm
06:59 19.9 °F /  -6.7 °C 15.3 °F /  -9.3 °C 29.74in /  1007hPa SSW 6.0mph /  9.7km/h 11.0mph /  17.7km/h 82% 0.00in /  0mm
07:04 19.9 °F /  -6.7 °C 15.3 °F /  -9.3 °C 29.74in /  1007hPa SW 7.0mph /  11.3km/h 12.0mph /  19.3km/h 82% 0.00in /  0mm
07:09 19.9 °F /  -6.7 °C 15.3 °F /  -9.3 °C 29.74in /  1007hPa SW 8.0mph /  12.9km/h 13.0mph /  20.9km/h 82% 0.00in /  0mm
07:14 20.0 °F /  -6.7 °C 15.4 °F /  -9.2 °C 29.74in /  1007hPa SW 8.0mph /  12.9km/h 13.0mph /  20.9km/h 82% 0.00in /  0mm
07:19 20.1 °F /  -6.6 °C 15.2 °F /  -9.3 °C 29.74in /  1007hPa SW 7.0mph /  11.3km/h 13.0mph /  20.9km/h 81% 0.00in /  0mm
07:24 20.2 °F /  -6.6 °C 15.3 °F /  -9.3 °C 29.74in /  1007hPa SW 5.0mph /  8km/h 16.0mph /  25.7km/h 81% 0.00in /  0mm
07:29 20.3 °F /  -6.5 °C 15.4 °F /  -9.2 °C 29.74in /  1007hPa SW 6.0mph /  9.7km/h 16.0mph /  25.7km/h 81% 0.00in /  0mm
07:34 20.3 °F /  -6.5 °C 15.1 °F /  -9.4 °C 29.74in /  1007hPa SW 7.0mph /  11.3km/h 15.0mph /  24.1km/h 80% 0.00in /  0mm
07:44 20.4 °F /  -6.4 °C 15.5 °F /  -9.2 °C 29.74in /  1007hPa SW 7.0mph /  11.3km/h 14.0mph /  22.5km/h 81% 0.00in /  0mm
07:49 20.4 °F /  -6.4 °C 15.5 °F /  -9.2 °C 29.74in /  1007hPa SSW 6.0mph /  9.7km/h 14.0mph /  22.5km/h 81% 0.00in /  0mm
07:54 20.3 °F /  -6.5 °C 15.4 °F /  -9.2 °C 29.75in /  1007.3hPa SW 5.0mph /  8km/h 14.0mph /  22.5km/h 81% 0.00in /  0mm
07:59 20.3 °F /  -6.5 °C 15.4 °F /  -9.2 °C 29.75in /  1007.3hPa SW 6.0mph /  9.7km/h 11.0mph /  17.7km/h 81% 0.00in /  0mm
08:04 20.3 °F /  -6.5 °C 15.4 °F /  -9.2 °C 29.75in /  1007.3hPa SW 5.0mph /  8km/h 11.0mph /  17.7km/h 81% 0.00in /  0mm
08:09 20.3 °F /  -6.5 °C 15.7 °F /  -9.1 °C 29.75in /  1007.3hPa SW 7.0mph /  11.3km/h 16.0mph /  25.7km/h 82% 0.00in /  0mm
08:14 20.4 °F /  -6.4 °C 15.8 °F /  -9 °C 29.75in /  1007.3hPa SW 6.0mph /  9.7km/h 16.0mph /  25.7km/h 82% 0.00in /  0mm
08:19 20.4 °F /  -6.4 °C 15.8 °F /  -9 °C 29.75in /  1007.3hPa SW 7.0mph /  11.3km/h 14.0mph /  22.5km/h 82% 0.00in /  0mm
08:24 20.4 °F /  -6.4 °C 15.8 °F /  -9 °C 29.75in /  1007.3hPa SSW 6.0mph /  9.7km/h 14.0mph /  22.5km/h 82% 0.00in /  0mm
08:29 20.4 °F /  -6.4 °C 15.8 °F /  -9 °C 29.75in /  1007.3hPa SW 4.0mph /  6.4km/h 13.0mph /  20.9km/h 82% 0.00in /  0mm
08:34 20.5 °F /  -6.4 °C 15.9 °F /  -8.9 °C 29.76in /  1007.7hPa SW 7.0mph /  11.3km/h 15.0mph /  24.1km/h 82% 0.00in /  0mm
08:39 20.5 °F /  -6.4 °C 15.9 °F /  -8.9 °C 29.75in /  1007.3hPa SW 6.0mph /  9.7km/h 15.0mph /  24.1km/h 82% 0.00in /  0mm
08:44 20.5 °F /  -6.4 °C 16.2 °F /  -8.8 °C 29.75in /  1007.3hPa SW 7.0mph /  11.3km/h 14.0mph /  22.5km/h 83% 0.00in /  0mm
08:49 20.6 °F /  -6.3 °C 16.3 °F /  -8.7 °C 29.75in /  1007.3hPa SW 7.0mph /  11.3km/h 14.0mph /  22.5km/h 83% 0.00in /  0mm
08:54 20.6 °F /  -6.3 °C 16.5 °F /  -8.6 °C 29.75in /  1007.3hPa SSW 5.0mph /  8km/h 13.0mph /  20.9km/h 84% 0.00in /  0mm
08:59 20.7 °F /  -6.3 °C 16.6 °F /  -8.6 °C 29.75in /  1007.3hPa SW 6.0mph /  9.7km/h 13.0mph /  20.9km/h 84% 0.00in /  0mm
09:04 20.8 °F /  -6.2 °C 16.7 °F /  -8.5 °C 29.75in /  1007.3hPa SW 7.0mph /  11.3km/h 12.0mph /  19.3km/h 84% 0.00in /  0mm
09:09 20.9 °F /  -6.2 °C 17.1 °F /  -8.3 °C 29.75in /  1007.3hPa SW 4.0mph /  6.4km/h 12.0mph /  19.3km/h 85% 0.00in /  0mm
09:14 21.1 °F /  -6.1 °C 17.3 °F /  -8.2 °C 29.75in /  1007.3hPa SW 5.0mph /  8km/h 11.0mph /  17.7km/h 85% 0.00in /  0mm
09:19 21.1 °F /  -6.1 °C 17.3 °F /  -8.2 °C 29.75in /  1007.3hPa SSW 6.0mph /  9.7km/h 10.0mph /  16.1km/h 85% 0.00in /  0mm
09:24 21.1 °F /  -6.1 °C 17.3 °F /  -8.2 °C 29.75in /  1007.3hPa SSW 7.0mph /  11.3km/h 11.0mph /  17.7km/h 85% 0.00in /  0mm
09:29 21.1 °F /  -6.1 °C 17.3 °F /  -8.2 °C 29.76in /  1007.7hPa West 3.0mph /  4.8km/h 11.0mph /  17.7km/h 85% 0.00in /  0mm
09:39 21.2 °F /  -6 °C 17.7 °F /  -7.9 °C 29.77in /  1008hPa West 3.0mph /  4.8km/h 6.0mph /  9.7km/h 86% 0.00in /  0mm
09:44 21.3 °F /  -5.9 °C 17.8 °F /  -7.9 °C 29.78in /  1008.4hPa NW 5.0mph /  8km/h 11.0mph /  17.7km/h 86% 0.00in /  0mm
09:49 21.2 °F /  -6 °C 17.7 °F /  -7.9 °C 29.78in /  1008.4hPa WNW 4.0mph /  6.4km/h 11.0mph /  17.7km/h 86% 0.00in /  0mm
09:54 21.2 °F /  -6 °C 17.7 °F /  -7.9 °C 29.78in /  1008.4hPa WNW 5.0mph /  8km/h 9.0mph /  14.5km/h 86% 0.00in /  0mm
09:59 21.2 °F /  -6 °C 17.7 °F /  -7.9 °C 29.78in /  1008.4hPa West 4.0mph /  6.4km/h 9.0mph /  14.5km/h 86% 0.00in /  0mm
10:04 21.5 °F /  -5.8 °C 18.0 °F /  -7.8 °C 29.77in /  1008hPa West 2.0mph /  3.2km/h 7.0mph /  11.3km/h 86% 0.00in /  0mm
10:09 21.8 °F /  -5.7 °C 18.3 °F /  -7.6 °C 29.77in /  1008hPa WSW 3.0mph /  4.8km/h 7.0mph /  11.3km/h 86% 0.00in /  0mm
10:14 22.1 °F /  -5.5 °C 18.3 °F /  -7.6 °C 29.77in /  1008hPa WSW 2.0mph /  3.2km/h 8.0mph /  12.9km/h 85% 0.00in /  0mm
10:19 22.4 °F /  -5.3 °C 18.6 °F /  -7.4 °C 29.77in /  1008hPa West 4.0mph /  6.4km/h 8.0mph /  12.9km/h 85% 0.00in /  0mm
10:24 22.4 °F /  -5.3 °C 18.6 °F /  -7.4 °C 29.77in /  1008hPa West 5.0mph /  8km/h 9.0mph /  14.5km/h 85% 0.00in /  0mm
10:34 22.2 °F /  -5.4 °C 18.1 °F /  -7.7 °C 29.77in /  1008hPa WNW 4.0mph /  6.4km/h 10.0mph /  16.1km/h 84% 0.00in /  0mm
10:39 22.2 °F /  -5.4 °C 18.1 °F /  -7.7 °C 29.77in /  1008hPa West 3.0mph /  4.8km/h 10.0mph /  16.1km/h 84% 0.00in /  0mm
10:44 22.2 °F /  -5.4 °C 18.4 °F /  -7.6 °C 29.77in /  1008hPa NW 4.0mph /  6.4km/h 9.0mph /  14.5km/h 85% 0.00in /  0mm
10:49 22.3 °F /  -5.4 °C 18.2 °F /  -7.7 °C 29.77in /  1008hPa NW 5.0mph /  8km/h 9.0mph /  14.5km/h 84% 0.00in /  0mm
10:54 22.3 °F /  -5.4 °C 18.2 °F /  -7.7 °C 29.76in /  1007.7hPa NW 1.0mph /  1.6km/h 8.0mph /  12.9km/h 84% 0.00in /  0mm
10:59 22.5 °F /  -5.3 °C 18.4 °F /  -7.6 °C 29.77in /  1008hPa NW 2.0mph /  3.2km/h 5.0mph /  8km/h 84% 0.00in /  0mm
11:04 22.5 °F /  -5.3 °C 18.1 °F /  -7.7 °C 29.76in /  1007.7hPa NW 4.0mph /  6.4km/h 7.0mph /  11.3km/h 83% 0.00in /  0mm
11:09 22.4 °F /  -5.3 °C 18.3 °F /  -7.6 °C 29.76in /  1007.7hPa WNW 1.0mph /  1.6km/h 7.0mph /  11.3km/h 84% 0.00in /  0mm
11:14 22.7 °F /  -5.2 °C 18.6 °F /  -7.4 °C 29.76in /  1007.7hPa WNW 1.0mph /  1.6km/h 5.0mph /  8km/h 84% 0.00in /  0mm
11:19 23.0 °F /  -5 °C 18.6 °F /  -7.4 °C 29.76in /  1007.7hPa WNW 2.0mph /  3.2km/h 5.0mph /  8km/h 83% 0.00in /  0mm
11:24 23.1 °F /  -4.9 °C 18.7 °F /  -7.4 °C 29.76in /  1007.7hPa WNW 1.0mph /  1.6km/h 5.0mph /  8km/h 83% 0.00in /  0mm
11:29 23.1 °F /  -4.9 °C 18.7 °F /  -7.4 °C 29.76in /  1007.7hPa Calm   4.0mph /  6.4km/h 83% 0.00in /  0mm
11:34 23.1 °F /  -4.9 °C 18.4 °F /  -7.6 °C 29.76in /  1007.7hPa NW 3.0mph /  4.8km/h 7.0mph /  11.3km/h 82% 0.00in /  0mm
11:39 22.9 °F /  -5.1 °C 17.9 °F /  -7.8 °C 29.76in /  1007.7hPa WNW 2.0mph /  3.2km/h 7.0mph /  11.3km/h 81% 0.00in /  0mm
11:44 22.6 °F /  -5.2 °C 17.7 °F /  -7.9 °C 29.76in /  1007.7hPa NW 5.0mph /  8km/h 9.0mph /  14.5km/h 81% 0.00in /  0mm
11:49 22.4 °F /  -5.3 °C 16.9 °F /  -8.4 °C 29.76in /  1007.7hPa West 4.0mph /  6.4km/h 9.0mph /  14.5km/h 79% 0.00in /  0mm
11:54 22.6 °F /  -5.2 °C 17.1 °F /  -8.3 °C 29.76in /  1007.7hPa NW 3.0mph /  4.8km/h 8.0mph /  12.9km/h 79% 0.00in /  0mm
11:59 22.7 °F /  -5.2 °C 16.6 °F /  -8.6 °C 29.76in /  1007.7hPa NW 5.0mph /  8km/h 9.0mph /  14.5km/h 77% 0.00in /  0mm
12:04 22.7 °F /  -5.2 °C 16.3 °F /  -8.7 °C 29.76in /  1007.7hPa WNW 6.0mph /  9.7km/h 10.0mph /  16.1km/h 76% 0.00in /  0mm
12:09 22.4 °F /  -5.3 °C 16.3 °F /  -8.7 °C 29.76in /  1007.7hPa WNW 3.0mph /  4.8km/h 10.0mph /  16.1km/h 77% 0.00in /  0mm
12:14 22.2 °F /  -5.4 °C 15.8 °F /  -9 °C 29.76in /  1007.7hPa WNW 5.0mph /  8km/h 9.0mph /  14.5km/h 76% 0.00in /  0mm
12:19 22.1 °F /  -5.5 °C 15.7 °F /  -9.1 °C 29.76in /  1007.7hPa WNW 5.0mph /  8km/h 10.0mph /  16.1km/h 76% 0.00in /  0mm
12:24 21.9 °F /  -5.6 °C 14.9 °F /  -9.5 °C 29.76in /  1007.7hPa WNW 4.0mph /  6.4km/h 10.0mph /  16.1km/h 74% 0.00in /  0mm
12:30 21.8 °F /  -5.7 °C 14.8 °F /  -9.6 °C 29.76in /  1007.7hPa NW 2.0mph /  3.2km/h 8.0mph /  12.9km/h 74% 0.00in /  0mm
12:39 21.7 °F /  -5.7 °C 14.4 °F /  -9.8 °C 29.76in /  1007.7hPa NW 2.0mph /  3.2km/h 9.0mph /  14.5km/h 73% 0.00in /  0mm
12:44 22.0 °F /  -5.6 °C 14.7 °F /  -9.6 °C 29.76in /  1007.7hPa NW 4.0mph /  6.4km/h 9.0mph /  14.5km/h 73% 0.00in /  0mm
12:49 22.5 °F /  -5.3 °C 14.8 °F /  -9.6 °C 29.76in /  1007.7hPa NW 2.0mph /  3.2km/h 9.0mph /  14.5km/h 72% 0.00in /  0mm
12:54 23.2 °F /  -4.9 °C 15.5 °F /  -9.2 °C 29.76in /  1007.7hPa NW 4.0mph /  6.4km/h 7.0mph /  11.3km/h 72% 0.00in /  0mm
12:59 23.8 °F /  -4.6 °C 15.8 °F /  -9 °C 29.76in /  1007.7hPa NNW 3.0mph /  4.8km/h 7.0mph /  11.3km/h 71% 0.00in /  0mm
13:04 23.9 °F /  -4.5 °C 15.2 °F /  -9.3 °C 29.76in /  1007.7hPa WNW 5.0mph /  8km/h 8.0mph /  12.9km/h 69% 0.00in /  0mm
13:09 23.6 °F /  -4.7 °C 14.9 °F /  -9.5 °C 29.76in /  1007.7hPa WNW 3.0mph /  4.8km/h 8.0mph /  12.9km/h 69% 0.00in /  0mm
13:14 23.5 °F /  -4.7 °C 15.2 °F /  -9.3 °C 29.76in /  1007.7hPa WNW 3.0mph /  4.8km/h 7.0mph /  11.3km/h 70% 0.00in /  0mm
13:19 23.4 °F /  -4.8 °C 14.7 °F /  -9.6 °C 29.77in /  1008hPa NW 3.0mph /  4.8km/h 7.0mph /  11.3km/h 69% 0.00in /  0mm
13:24 23.4 °F /  -4.8 °C 14.4 °F /  -9.8 °C 29.76in /  1007.7hPa WNW 5.0mph /  8km/h 9.0mph /  14.5km/h 68% 0.00in /  0mm
13:29 23.4 °F /  -4.8 °C 14.7 °F /  -9.6 °C 29.76in /  1007.7hPa WNW 2.0mph /  3.2km/h 9.0mph /  14.5km/h 69% 0.00in /  0mm
13:34 23.6 °F /  -4.7 °C 14.9 °F /  -9.5 °C 29.77in /  1008hPa NW 2.0mph /  3.2km/h 7.0mph /  11.3km/h 69% 0.00in /  0mm
13:39 23.8 °F /  -4.6 °C 14.4 °F /  -9.8 °C 29.77in /  1008hPa NW 4.0mph /  6.4km/h 7.0mph /  11.3km/h 67% 0.00in /  0mm
13:44 23.9 °F /  -4.5 °C 14.2 °F /  -9.9 °C 29.77in /  1008hPa NW 8.0mph /  12.9km/h 11.0mph /  17.7km/h 66% 0.00in /  0mm
13:49 24.0 °F /  -4.4 °C 14.6 °F /  -9.7 °C 29.77in /  1008hPa NW 4.0mph /  6.4km/h 11.0mph /  17.7km/h 67% 0.00in /  0mm
13:54 24.3 °F /  -4.3 °C 14.9 °F /  -9.5 °C 29.77in /  1008hPa NW 3.0mph /  4.8km/h 8.0mph /  12.9km/h 67% 0.00in /  0mm
13:59 24.4 °F /  -4.2 °C 14.7 °F /  -9.6 °C 29.78in /  1008.4hPa NW 5.0mph /  8km/h 9.0mph /  14.5km/h 66% 0.00in /  0mm
14:04 24.5 °F /  -4.2 °C 15.5 °F /  -9.2 °C 29.78in /  1008.4hPa Calm   9.0mph /  14.5km/h 68% 0.00in /  0mm
14:09 24.4 °F /  -4.2 °C 15.0 °F /  -9.4 °C 29.78in /  1008.4hPa NNW 4.0mph /  6.4km/h 9.0mph /  14.5km/h 67% 0.00in /  0mm
14:14 24.2 °F /  -4.3 °C 14.5 °F /  -9.7 °C 29.78in /  1008.4hPa NW 4.0mph /  6.4km/h 9.0mph /  14.5km/h 66% 0.00in /  0mm
14:19 23.9 °F /  -4.5 °C 14.5 °F /  -9.7 °C 29.78in /  1008.4hPa WNW 6.0mph /  9.7km/h 9.0mph /  14.5km/h 67% 0.00in /  0mm
14:24 23.8 °F /  -4.6 °C 14.1 °F /  -9.9 °C 29.78in /  1008.4hPa NW 4.0mph /  6.4km/h 9.0mph /  14.5km/h 66% 0.00in /  0mm
14:29 23.8 °F /  -4.6 °C 13.8 °F /  -10.1 °C 29.78in /  1008.4hPa WNW 7.0mph /  11.3km/h 11.0mph /  17.7km/h 65% 0.00in /  0mm
14:34 23.7 °F /  -4.6 °C 13.3 °F /  -10.4 °C 29.79in /  1008.7hPa WNW 7.0mph /  11.3km/h 15.0mph /  24.1km/h 64% 0.00in /  0mm
14:39 23.7 °F /  -4.6 °C 13.3 °F /  -10.4 °C 29.79in /  1008.7hPa WNW 7.0mph /  11.3km/h 15.0mph /  24.1km/h 64% 0.00in /  0mm
14:44 23.7 °F /  -4.6 °C 12.9 °F /  -10.6 °C 29.79in /  1008.7hPa WNW 6.0mph /  9.7km/h 12.0mph /  19.3km/h 63% 0.00in /  0mm
14:49 23.7 °F /  -4.6 °C 12.9 °F /  -10.6 °C 29.79in /  1008.7hPa NW 6.0mph /  9.7km/h 17.0mph /  27.4km/h 63% 0.00in /  0mm
14:54 23.8 °F /  -4.6 °C 13.4 °F /  -10.3 °C 29.79in /  1008.7hPa NNW 3.0mph /  4.8km/h 17.0mph /  27.4km/h 64% 0.00in /  0mm
15:00 23.9 °F /  -4.5 °C 13.1 °F /  -10.5 °C 29.79in /  1008.7hPa NNW 5.0mph /  8km/h 9.0mph /  14.5km/h 63% 0.00in /  0mm
15:09 23.8 °F /  -4.6 °C 13.0 °F /  -10.6 °C 29.80in /  1009hPa NW 7.0mph /  11.3km/h 12.0mph /  19.3km/h 63% 0.00in /  0mm
15:14 23.7 °F /  -4.6 °C 12.6 °F /  -10.8 °C 29.80in /  1009hPa NW 7.0mph /  11.3km/h 12.0mph /  19.3km/h 62% 0.00in /  0mm
15:19 23.5 °F /  -4.7 °C 12.0 °F /  -11.1 °C 29.80in /  1009hPa WNW 10.0mph /  16.1km/h 16.0mph /  25.7km/h 61% 0.00in /  0mm
15:25 23.3 °F /  -4.8 °C 12.2 °F /  -11 °C 29.80in /  1009hPa WNW 5.0mph /  8km/h 16.0mph /  25.7km/h 62% 0.00in /  0mm
15:34 23.1 °F /  -4.9 °C 11.3 °F /  -11.5 °C 29.81in /  1009.4hPa WNW 9.0mph /  14.5km/h 17.0mph /  27.4km/h 60% 0.00in /  0mm
15:39 23.1 °F /  -4.9 °C 10.9 °F /  -11.7 °C 29.81in /  1009.4hPa NW 8.0mph /  12.9km/h 15.0mph /  24.1km/h 59% 0.00in /  0mm
15:44 23.1 °F /  -4.9 °C 10.5 °F /  -11.9 °C 29.82in /  1009.7hPa WNW 8.0mph /  12.9km/h 21.0mph /  33.8km/h 58% 0.00in /  0mm
15:49 23.0 °F /  -5 °C 10.4 °F /  -12 °C 29.82in /  1009.7hPa NW 9.0mph /  14.5km/h 21.0mph /  33.8km/h 58% 0.00in /  0mm
15:54 22.8 °F /  -5.1 °C 9.8 °F /  -12.3 °C 29.82in /  1009.7hPa WNW 10.0mph /  16.1km/h 23.0mph /  37km/h 57% 0.00in /  0mm
15:59 22.6 °F /  -5.2 °C 9.7 °F /  -12.4 °C 29.82in /  1009.7hPa NNW 8.0mph /  12.9km/h 23.0mph /  37km/h 57% 0.00in /  0mm
16:04 22.3 °F /  -5.4 °C 9.8 °F /  -12.3 °C 29.82in /  1009.7hPa NW 8.0mph /  12.9km/h 19.0mph /  30.6km/h 58% 0.00in /  0mm
16:09 22.1 °F /  -5.5 °C 9.6 °F /  -12.4 °C 29.82in /  1009.7hPa NW 5.0mph /  8km/h 17.0mph /  27.4km/h 58% 0.00in /  0mm
16:14 22.0 °F /  -5.6 °C 9.5 °F /  -12.5 °C 29.83in /  1010hPa WNW 7.0mph /  11.3km/h 15.0mph /  24.1km/h 58% 0.00in /  0mm
16:19 21.9 °F /  -5.6 °C 9.4 °F /  -12.6 °C 29.83in /  1010hPa WNW 10.0mph /  16.1km/h 18.0mph /  29km/h 58% 0.00in /  0mm
16:24 21.8 °F /  -5.7 °C 8.9 °F /  -12.8 °C 29.83in /  1010hPa WNW 11.0mph /  17.7km/h 18.0mph /  29km/h 57% 0.00in /  0mm
16:29 21.8 °F /  -5.7 °C 9.3 °F /  -12.6 °C 29.83in /  1010hPa WNW 6.0mph /  9.7km/h 17.0mph /  27.4km/h 58% 0.00in /  0mm
16:34 21.9 °F /  -5.6 °C 9.4 °F /  -12.6 °C 29.83in /  1010hPa WNW 8.0mph /  12.9km/h 18.0mph /  29km/h 58% 0.00in /  0mm
16:39 22.0 °F /  -5.6 °C 9.5 °F /  -12.5 °C 29.83in /  1010hPa WNW 6.0mph /  9.7km/h 18.0mph /  29km/h 58% 0.00in /  0mm
16:44 21.9 °F /  -5.6 °C 9.4 °F /  -12.6 °C 29.84in /  1010.4hPa WNW 8.0mph /  12.9km/h 18.0mph /  29km/h 58% 0.00in /  0mm
16:49 22.0 °F /  -5.6 °C 9.9 °F /  -12.3 °C 29.84in /  1010.4hPa WNW 4.0mph /  6.4km/h 13.0mph /  20.9km/h 59% 0.00in /  0mm
16:54 21.9 °F /  -5.6 °C 9.8 °F /  -12.3 °C 29.84in /  1010.4hPa WNW 6.0mph /  9.7km/h 13.0mph /  20.9km/h 59% 0.00in /  0mm
16:59 22.0 °F /  -5.6 °C 9.9 °F /  -12.3 °C 29.84in /  1010.4hPa WNW 7.0mph /  11.3km/h 13.0mph /  20.9km/h 59% 0.00in /  0mm
17:04 22.1 °F /  -5.5 °C 10.0 °F /  -12.2 °C 29.84in /  1010.4hPa WNW 8.0mph /  12.9km/h 16.0mph /  25.7km/h 59% 0.00in /  0mm
17:09 22.1 °F /  -5.5 °C 9.6 °F /  -12.4 °C 29.85in /  1010.7hPa WNW 8.0mph /  12.9km/h 16.0mph /  25.7km/h 58% 0.00in /  0mm
17:14 22.1 °F /  -5.5 °C 9.6 °F /  -12.4 °C 29.84in /  1010.4hPa WNW 8.0mph /  12.9km/h 17.0mph /  27.4km/h 58% 0.00in /  0mm
17:19 22.1 °F /  -5.5 °C 10.0 °F /  -12.2 °C 29.85in /  1010.7hPa NW 8.0mph /  12.9km/h 17.0mph /  27.4km/h 59% 0.00in /  0mm
17:24 22.0 °F /  -5.6 °C 9.9 °F /  -12.3 °C 29.85in /  1010.7hPa WNW 5.0mph /  8km/h 16.0mph /  25.7km/h 59% 0.00in /  0mm
17:30 21.8 °F /  -5.7 °C 9.7 °F /  -12.4 °C 29.85in /  1010.7hPa NW 3.0mph /  4.8km/h 11.0mph /  17.7km/h 59% 0.00in /  0mm
17:39 20.9 °F /  -6.2 °C 8.8 °F /  -12.9 °C 29.85in /  1010.7hPa WNW 2.0mph /  3.2km/h 6.0mph /  9.7km/h 59% 0.00in /  0mm
17:49 20.2 °F /  -6.6 °C 8.9 °F /  -12.8 °C 29.85in /  1010.7hPa WSW 2.0mph /  3.2km/h 8.0mph /  12.9km/h 61% 0.00in /  0mm
17:54 19.7 °F /  -6.8 °C 8.4 °F /  -13.1 °C 29.86in /  1011.1hPa West 2.0mph /  3.2km/h 4.0mph /  6.4km/h 61% 0.00in /  0mm
17:59 19.7 °F /  -6.8 °C 8.8 °F /  -12.9 °C 29.86in /  1011.1hPa West 5.0mph /  8km/h 10.0mph /  16.1km/h 62% 0.00in /  0mm
18:04 19.9 °F /  -6.7 °C 9.0 °F /  -12.8 °C 29.86in /  1011.1hPa WNW 4.0mph /  6.4km/h 10.0mph /  16.1km/h 62% 0.00in /  0mm
18:09 19.9 °F /  -6.7 °C 8.6 °F /  -13 °C 29.86in /  1011.1hPa West 3.0mph /  4.8km/h 9.0mph /  14.5km/h 61% 0.00in /  0mm
18:14 19.7 °F /  -6.8 °C 8.4 °F /  -13.1 °C 29.86in /  1011.1hPa West 2.0mph /  3.2km/h 7.0mph /  11.3km/h 61% 0.00in /  0mm
18:19 19.1 °F /  -7.2 °C 8.2 °F /  -13.2 °C 29.86in /  1011.1hPa West 3.0mph /  4.8km/h 5.0mph /  8km/h 62% 0.00in /  0mm
18:25 19.1 °F /  -7.2 °C 8.6 °F /  -13 °C 29.86in /  1011.1hPa WNW 5.0mph /  8km/h 8.0mph /  12.9km/h 63% 0.00in /  0mm
18:34 19.4 °F /  -7 °C 10.6 °F /  -11.9 °C 29.86in /  1011.1hPa WNW 2.0mph /  3.2km/h 7.0mph /  11.3km/h 68% 0.00in /  0mm
18:39 19.3 °F /  -7.1 °C 8.4 °F /  -13.1 °C 29.86in /  1011.1hPa WNW 3.0mph /  4.8km/h 7.0mph /  11.3km/h 62% 0.00in /  0mm
18:44 19.1 °F /  -7.2 °C 8.2 °F /  -13.2 °C 29.87in /  1011.4hPa NW 2.0mph /  3.2km/h 7.0mph /  11.3km/h 62% 0.00in /  0mm
18:49 18.8 °F /  -7.3 °C 8.3 °F /  -13.2 °C 29.87in /  1011.4hPa NW 1.0mph /  1.6km/h 6.0mph /  9.7km/h 63% 0.00in /  0mm
18:54 18.3 °F /  -7.6 °C 7.8 °F /  -13.4 °C 29.87in /  1011.4hPa West 2.0mph /  3.2km/h 6.0mph /  9.7km/h 63% 0.00in /  0mm
18:59 18.1 °F /  -7.7 °C 8.0 °F /  -13.3 °C 29.87in /  1011.4hPa West 1.0mph /  1.6km/h 6.0mph /  9.7km/h 64% 0.00in /  0mm
19:04 17.9 °F /  -7.8 °C 8.1 °F /  -13.3 °C 29.87in /  1011.4hPa West 1.0mph /  1.6km/h 4.0mph /  6.4km/h 65% 0.00in /  0mm
19:09 18.0 °F /  -7.8 °C 8.2 °F /  -13.2 °C 29.88in /  1011.7hPa West 2.0mph /  3.2km/h 4.0mph /  6.4km/h 65% 0.00in /  0mm
19:14 18.2 °F /  -7.7 °C 8.4 °F /  -13.1 °C 29.87in /  1011.4hPa Calm   4.0mph /  6.4km/h 65% 0.00in /  0mm
19:19 18.0 °F /  -7.8 °C 8.2 °F /  -13.2 °C 29.87in /  1011.4hPa Calm   3.0mph /  4.8km/h 65% 0.00in /  0mm
19:24 17.8 °F /  -7.9 °C 8.4 °F /  -13.1 °C 29.87in /  1011.4hPa West 1.0mph /  1.6km/h 3.0mph /  4.8km/h 66% 0.00in /  0mm
19:29 17.8 °F /  -7.9 °C 8.4 °F /  -13.1 °C 29.87in /  1011.4hPa West 2.0mph /  3.2km/h 4.0mph /  6.4km/h 66% 0.00in /  0mm
19:34 17.7 °F /  -7.9 °C 8.6 °F /  -13 °C 29.88in /  1011.7hPa West 2.0mph /  3.2km/h 7.0mph /  11.3km/h 67% 0.00in /  0mm
19:39 18.0 °F /  -7.8 °C 8.9 °F /  -12.8 °C 29.88in /  1011.7hPa West 3.0mph /  4.8km/h 7.0mph /  11.3km/h 67% 0.00in /  0mm
19:44 18.2 °F /  -7.7 °C 9.1 °F /  -12.7 °C 29.87in /  1011.4hPa WNW 2.0mph /  3.2km/h 6.0mph /  9.7km/h 67% 0.00in /  0mm
19:49 18.2 °F /  -7.7 °C 9.1 °F /  -12.7 °C 29.87in /  1011.4hPa WNW 2.0mph /  3.2km/h 6.0mph /  9.7km/h 67% 0.00in /  0mm
19:54 18.3 °F /  -7.6 °C 9.2 °F /  -12.7 °C 29.87in /  1011.4hPa WNW 2.0mph /  3.2km/h 5.0mph /  8km/h 67% 0.00in /  0mm
19:59 18.0 °F /  -7.8 °C 8.9 °F /  -12.8 °C 29.87in /  1011.4hPa NW 1.0mph /  1.6km/h 4.0mph /  6.4km/h 67% 0.00in /  0mm
20:04 17.7 °F /  -7.9 °C 8.6 °F /  -13 °C 29.87in /  1011.4hPa Calm   4.0mph /  6.4km/h 67% 0.00in /  0mm
20:09 17.5 °F /  -8.1 °C 8.7 °F /  -12.9 °C 29.88in /  1011.7hPa Calm   3.0mph /  4.8km/h 68% 0.00in /  0mm
20:14 17.3 °F /  -8.2 °C 8.9 °F /  -12.8 °C 29.88in /  1011.7hPa NW 1.0mph /  1.6km/h 3.0mph /  4.8km/h 69% 0.00in /  0mm
20:19 17.6 °F /  -8 °C 9.2 °F /  -12.7 °C 29.88in /  1011.7hPa Calm   5.0mph /  8km/h 69% 0.00in /  0mm
20:24 17.9 °F /  -7.8 °C 9.5 °F /  -12.5 °C 29.88in /  1011.7hPa West 1.0mph /  1.6km/h 5.0mph /  8km/h 69% 0.00in /  0mm
20:29 18.0 °F /  -7.8 °C 9.5 °F /  -12.5 °C 29.88in /  1011.7hPa Calm   3.0mph /  4.8km/h 69% 0.00in /  0mm
20:34 17.9 °F /  -7.8 °C 9.5 °F /  -12.5 °C 29.88in /  1011.7hPa Calm   3.0mph /  4.8km/h 69% 0.00in /  0mm
20:39 17.6 °F /  -8 °C 9.2 °F /  -12.7 °C 29.88in /  1011.7hPa Calm     69% 0.00in /  0mm
20:44 17.3 °F /  -8.2 °C 8.9 °F /  -12.8 °C 29.88in /  1011.7hPa Calm     69% 0.00in /  0mm
20:49 17.0 °F /  -8.3 °C 8.9 °F /  -12.8 °C 29.88in /  1011.7hPa Calm   1.0mph /  1.6km/h 70% 0.00in /  0mm
20:54 16.9 °F /  -8.4 °C 9.1 °F /  -12.7 °C 29.88in /  1011.7hPa Calm   1.0mph /  1.6km/h 71% 0.00in /  0mm
20:59 16.9 °F /  -8.4 °C 9.1 °F /  -12.7 °C 29.88in /  1011.7hPa Calm   1.0mph /  1.6km/h 71% 0.00in /  0mm
21:04 17.2 °F /  -8.2 °C 9.4 °F /  -12.6 °C 29.88in /  1011.7hPa Calm   1.0mph /  1.6km/h 71% 0.00in /  0mm
21:09 17.8 °F /  -7.9 °C 10.0 °F /  -12.2 °C 29.88in /  1011.7hPa Calm     71% 0.00in /  0mm
21:14 18.0 °F /  -7.8 °C 10.2 °F /  -12.1 °C 29.88in /  1011.7hPa Calm     71% 0.00in /  0mm
21:19 17.9 °F /  -7.8 °C 10.1 °F /  -12.2 °C 29.88in /  1011.7hPa Calm     71% 0.00in /  0mm
21:24 17.7 °F /  -7.9 °C 9.9 °F /  -12.3 °C 29.87in /  1011.4hPa Calm     71% 0.00in /  0mm
21:30 17.8 °F /  -7.9 °C 10.0 °F /  -12.2 °C 29.87in /  1011.4hPa Calm   2.0mph /  3.2km/h 71% 0.00in /  0mm
21:40 17.6 °F /  -8 °C 9.8 °F /  -12.3 °C 29.87in /  1011.4hPa Calm     71% 0.00in /  0mm
21:49 17.0 °F /  -8.3 °C 9.5 °F /  -12.5 °C 29.87in /  1011.4hPa Calm     72% 0.00in /  0mm
21:54 16.6 °F /  -8.6 °C 9.1 °F /  -12.7 °C 29.87in /  1011.4hPa Calm     72% 0.00in /  0mm
21:59 16.2 °F /  -8.8 °C 8.8 °F /  -12.9 °C 29.87in /  1011.4hPa Calm   1.0mph /  1.6km/h 72% 0.00in /  0mm
22:04 15.8 °F /  -9 °C 8.7 °F /  -12.9 °C 29.87in /  1011.4hPa Calm   1.0mph /  1.6km/h 73% 0.00in /  0mm
22:09 15.6 °F /  -9.1 °C 8.8 °F /  -12.9 °C 29.87in /  1011.4hPa Calm   1.0mph /  1.6km/h 74% 0.00in /  0mm
22:14 15.4 °F /  -9.2 °C 8.6 °F /  -13 °C 29.87in /  1011.4hPa Calm     74% 0.00in /  0mm
22:19 15.4 °F /  -9.2 °C 8.9 °F /  -12.8 °C 29.86in /  1011.1hPa Calm     75% 0.00in /  0mm
22:24 15.5 °F /  -9.2 °C 9.0 °F /  -12.8 °C 29.86in /  1011.1hPa Calm     75% 0.00in /  0mm
22:29 15.6 °F /  -9.1 °C 9.1 °F /  -12.7 °C 29.86in /  1011.1hPa Calm     75% 0.00in /  0mm
22:34 15.7 °F /  -9.1 °C 9.2 °F /  -12.7 °C 29.86in /  1011.1hPa Calm     75% 0.00in /  0mm
22:39 15.8 °F /  -9 °C 9.3 °F /  -12.6 °C 29.86in /  1011.1hPa Calm     75% 0.00in /  0mm
22:44 15.5 °F /  -9.2 °C 9.0 °F /  -12.8 °C 29.87in /  1011.4hPa Calm     75% 0.00in /  0mm
22:49 15.2 °F /  -9.3 °C 9.0 °F /  -12.8 °C 29.86in /  1011.1hPa Calm     76% 0.00in /  0mm
22:54 14.8 °F /  -9.6 °C 8.3 °F /  -13.2 °C 29.86in /  1011.1hPa Calm     75% 0.00in /  0mm
22:59 14.6 °F /  -9.7 °C 8.4 °F /  -13.1 °C 29.86in /  1011.1hPa Calm     76% 0.00in /  0mm
23:04 14.8 °F /  -9.6 °C 8.9 °F /  -12.8 °C 29.86in /  1011.1hPa Calm     77% 0.00in /  0mm
23:09 15.2 °F /  -9.3 °C 9.3 °F /  -12.6 °C 29.86in /  1011.1hPa Calm   1.0mph /  1.6km/h 77% 0.00in /  0mm
23:14 15.4 °F /  -9.2 °C 9.5 °F /  -12.5 °C 29.86in /  1011.1hPa Calm   1.0mph /  1.6km/h 77% 0.00in /  0mm
23:19 15.4 °F /  -9.2 °C 9.2 °F /  -12.7 °C 29.85in /  1010.7hPa Calm     76% 0.00in /  0mm
23:24 15.5 °F /  -9.2 °C 9.3 °F /  -12.6 °C 29.85in /  1010.7hPa Calm     76% 0.00in /  0mm
23:29 15.6 °F /  -9.1 °C 9.4 °F /  -12.6 °C 29.84in /  1010.4hPa Calm     76% 0.00in /  0mm
23:34 15.6 °F /  -9.1 °C 9.7 °F /  -12.4 °C 29.84in /  1010.4hPa Calm     77% 0.00in /  0mm
23:39 15.7 °F /  -9.1 °C 9.5 °F /  -12.5 °C 29.84in /  1010.4hPa Calm     76% 0.00in /  0mm
23:44 15.5 °F /  -9.2 °C 9.6 °F /  -12.4 °C 29.84in /  1010.4hPa Calm     77% 0.00in /  0mm
23:49 15.3 °F /  -9.3 °C 9.4 °F /  -12.6 °C 29.84in /  1010.4hPa Calm     77% 0.00in /  0mm
23:54 15.4 °F /  -9.2 °C 9.5 °F /  -12.5 °C 29.84in /  1010.4hPa Calm   1.0mph /  1.6km/h 77% 0.00in /  0mm
23:59 15.6 °F /  -9.1 °C 9.7 °F /  -12.4 °C 29.84in /  1010.4hPa Calm   1.0mph /  1.6km/h 77% 0.00in /  0mm
Westford Weather
Compliments of Weather Underground

 
 
Current Radar Loop:

Copyright © WestfordWeather.net 2007-2014. All rights reserved.